sensor_id;sensor_type;location;lat;lon;timestamp;P1;durP1;ratioP1;P2;durP2;ratioP2
20421;SDS011;10370;53.102;18.034;2023-07-09T00:04:27;16.48;;;5.07;;
20421;SDS011;10370;53.102;18.034;2023-07-09T00:09:55;12.60;;;5.00;;
20421;SDS011;10370;53.102;18.034;2023-07-09T00:15:18;10.85;;;4.82;;
20421;SDS011;10370;53.102;18.034;2023-07-09T00:20:42;8.10;;;4.78;;
20421;SDS011;10370;53.102;18.034;2023-07-09T00:26:09;15.18;;;5.45;;
20421;SDS011;10370;53.102;18.034;2023-07-09T00:31:35;10.05;;;5.47;;
20421;SDS011;10370;53.102;18.034;2023-07-09T00:37:03;12.23;;;5.20;;
20421;SDS011;10370;53.102;18.034;2023-07-09T00:42:32;12.95;;;5.47;;
20421;SDS011;10370;53.102;18.034;2023-07-09T00:47:56;10.13;;;5.30;;
20421;SDS011;10370;53.102;18.034;2023-07-09T00:53:25;11.77;;;5.25;;
20421;SDS011;10370;53.102;18.034;2023-07-09T00:58:53;6.32;;;4.85;;
20421;SDS011;10370;53.102;18.034;2023-07-09T01:04:18;9.32;;;5.20;;
20421;SDS011;10370;53.102;18.034;2023-07-09T01:09:46;10.77;;;5.72;;
20421;SDS011;10370;53.102;18.034;2023-07-09T01:15:09;10.63;;;6.70;;
20421;SDS011;10370;53.102;18.034;2023-07-09T01:20:33;18.70;;;9.75;;
20421;SDS011;10370;53.102;18.034;2023-07-09T01:25:57;17.52;;;10.00;;
20421;SDS011;10370;53.102;18.034;2023-07-09T01:31:20;16.23;;;10.75;;
20421;SDS011;10370;53.102;18.034;2023-07-09T01:36:45;14.93;;;9.23;;
20421;SDS011;10370;53.102;18.034;2023-07-09T01:42:11;14.48;;;9.27;;
20421;SDS011;10370;53.102;18.034;2023-07-09T01:47:34;13.35;;;8.63;;
20421;SDS011;10370;53.102;18.034;2023-07-09T01:52:58;23.45;;;9.07;;
20421;SDS011;10370;53.102;18.034;2023-07-09T01:58:23;14.80;;;8.75;;
20421;SDS011;10370;53.102;18.034;2023-07-09T02:03:47;12.98;;;8.85;;
20421;SDS011;10370;53.102;18.034;2023-07-09T02:09:10;13.68;;;8.43;;
20421;SDS011;10370;53.102;18.034;2023-07-09T02:14:36;14.32;;;9.50;;
20421;SDS011;10370;53.102;18.034;2023-07-09T02:19:59;18.25;;;9.18;;
20421;SDS011;10370;53.102;18.034;2023-07-09T02:25:22;19.33;;;8.85;;
20421;SDS011;10370;53.102;18.034;2023-07-09T02:30:45;16.50;;;9.35;;
20421;SDS011;10370;53.102;18.034;2023-07-09T02:36:08;13.90;;;8.10;;
20421;SDS011;10370;53.102;18.034;2023-07-09T02:41:31;14.13;;;7.97;;
20421;SDS011;10370;53.102;18.034;2023-07-09T02:46:59;11.32;;;6.80;;
20421;SDS011;10370;53.102;18.034;2023-07-09T02:52:31;12.52;;;7.82;;
20421;SDS011;10370;53.102;18.034;2023-07-09T02:57:55;10.35;;;7.13;;
20421;SDS011;10370;53.102;18.034;2023-07-09T03:03:20;11.63;;;6.47;;
20421;SDS011;10370;53.102;18.034;2023-07-09T03:08:43;12.07;;;6.78;;
20421;SDS011;10370;53.102;18.034;2023-07-09T03:14:13;11.27;;;6.57;;
20421;SDS011;10370;53.102;18.034;2023-07-09T03:19:36;12.40;;;6.78;;
20421;SDS011;10370;53.102;18.034;2023-07-09T03:25:06;12.18;;;6.82;;
20421;SDS011;10370;53.102;18.034;2023-07-09T03:30:32;14.50;;;6.30;;
20421;SDS011;10370;53.102;18.034;2023-07-09T03:35:55;35.50;;;8.20;;
20421;SDS011;10370;53.102;18.034;2023-07-09T03:41:18;11.98;;;7.18;;
20421;SDS011;10370;53.102;18.034;2023-07-09T03:46:40;16.50;;;7.40;;
20421;SDS011;10370;53.102;18.034;2023-07-09T03:52:03;12.60;;;6.97;;
20421;SDS011;10370;53.102;18.034;2023-07-09T03:57:47;10.32;;;6.90;;
20421;SDS011;10370;53.102;18.034;2023-07-09T04:03:10;10.13;;;6.32;;
20421;SDS011;10370;53.102;18.034;2023-07-09T04:08:33;9.68;;;6.47;;
20421;SDS011;10370;53.102;18.034;2023-07-09T04:13:55;10.35;;;6.22;;
20421;SDS011;10370;53.102;18.034;2023-07-09T04:19:18;8.68;;;6.45;;
20421;SDS011;10370;53.102;18.034;2023-07-09T04:24:41;9.88;;;6.10;;
20421;SDS011;10370;53.102;18.034;2023-07-09T04:30:04;9.95;;;6.13;;
20421;SDS011;10370;53.102;18.034;2023-07-09T04:35:32;8.85;;;5.80;;
20421;SDS011;10370;53.102;18.034;2023-07-09T04:40:54;9.20;;;5.47;;
20421;SDS011;10370;53.102;18.034;2023-07-09T04:46:17;7.47;;;4.88;;
20421;SDS011;10370;53.102;18.034;2023-07-09T04:51:40;9.15;;;4.50;;
20421;SDS011;10370;53.102;18.034;2023-07-09T04:57:02;6.85;;;4.03;;
20421;SDS011;10370;53.102;18.034;2023-07-09T05:02:25;9.40;;;3.70;;
20421;SDS011;10370;53.102;18.034;2023-07-09T05:07:48;6.07;;;3.28;;
20421;SDS011;10370;53.102;18.034;2023-07-09T05:13:12;4.90;;;2.60;;
20421;SDS011;10370;53.102;18.034;2023-07-09T05:18:35;5.30;;;2.20;;
20421;SDS011;10370;53.102;18.034;2023-07-09T05:29:21;3.72;;;1.92;;
20421;SDS011;10370;53.102;18.034;2023-07-09T05:34:46;3.90;;;1.92;;
20421;SDS011;10370;53.102;18.034;2023-07-09T05:40:11;4.43;;;1.80;;
20421;SDS011;10370;53.102;18.034;2023-07-09T05:45:40;2.20;;;1.45;;
20421;SDS011;10370;53.102;18.034;2023-07-09T05:51:03;3.50;;;1.50;;
20421;SDS011;10370;53.102;18.034;2023-07-09T06:28:43;4.20;;;1.73;;
20421;SDS011;10370;53.102;18.034;2023-07-09T06:34:06;3.78;;;1.90;;
20421;SDS011;10370;53.102;18.034;2023-07-09T06:39:29;5.03;;;2.40;;
20421;SDS011;10370;53.102;18.034;2023-07-09T06:44:51;3.67;;;2.20;;
20421;SDS011;10370;53.102;18.034;2023-07-09T06:50:14;3.53;;;2.30;;
20421;SDS011;10370;53.102;18.034;2023-07-09T06:55:37;5.70;;;2.40;;
20421;SDS011;10370;53.102;18.034;2023-07-09T07:01:01;3.88;;;2.63;;
20421;SDS011;10370;53.102;18.034;2023-07-09T07:06:27;4.25;;;2.47;;
20421;SDS011;10370;53.102;18.034;2023-07-09T07:11:50;5.57;;;2.20;;
20421;SDS011;10370;53.102;18.034;2023-07-09T07:17:12;3.45;;;2.30;;
20421;SDS011;10370;53.102;18.034;2023-07-09T07:22:36;5.45;;;2.17;;
20421;SDS011;10370;53.102;18.034;2023-07-09T07:28:00;3.30;;;2.10;;
20421;SDS011;10370;53.102;18.034;2023-07-09T07:33:22;4.82;;;2.40;;
20421;SDS011;10370;53.102;18.034;2023-07-09T07:38:45;3.20;;;2.10;;
20421;SDS011;10370;53.102;18.034;2023-07-09T07:44:11;5.43;;;2.38;;
20421;SDS011;10370;53.102;18.034;2023-07-09T07:49:34;4.93;;;2.20;;
20421;SDS011;10370;53.102;18.034;2023-07-09T07:54:56;5.38;;;2.15;;
20421;SDS011;10370;53.102;18.034;2023-07-09T08:00:19;5.93;;;2.88;;
20421;SDS011;10370;53.102;18.034;2023-07-09T08:05:42;3.05;;;2.22;;
20421;SDS011;10370;53.102;18.034;2023-07-09T08:11:10;6.93;;;2.05;;
20421;SDS011;10370;53.102;18.034;2023-07-09T08:16:33;3.35;;;2.00;;
20421;SDS011;10370;53.102;18.034;2023-07-09T08:21:56;4.57;;;2.30;;
20421;SDS011;10370;53.102;18.034;2023-07-09T08:27:22;2.30;;;1.70;;
20421;SDS011;10370;53.102;18.034;2023-07-09T08:32:45;3.63;;;1.73;;
20421;SDS011;10370;53.102;18.034;2023-07-09T08:38:08;3.95;;;2.20;;
20421;SDS011;10370;53.102;18.034;2023-07-09T08:43:36;4.68;;;1.80;;
20421;SDS011;10370;53.102;18.034;2023-07-09T08:49:30;2.58;;;1.80;;
20421;SDS011;10370;53.102;18.034;2023-07-09T08:55:21;3.50;;;1.90;;
20421;SDS011;10370;53.102;18.034;2023-07-09T09:00:54;4.40;;;2.05;;
20421;SDS011;10370;53.102;18.034;2023-07-09T09:06:38;3.63;;;1.77;;
20421;SDS011;10370;53.102;18.034;2023-07-09T09:17:34;6.00;;;2.10;;
20421;SDS011;10370;53.102;18.034;2023-07-09T09:28:28;1.60;;;1.40;;
20421;SDS011;10370;53.102;18.034;2023-07-09T09:33:54;2.67;;;1.52;;
20421;SDS011;10370;53.102;18.034;2023-07-09T09:39:17;3.08;;;1.52;;
20421;SDS011;10370;53.102;18.034;2023-07-09T09:44:43;2.08;;;1.40;;
20421;SDS011;10370;53.102;18.034;2023-07-09T09:50:09;3.42;;;1.50;;
20421;SDS011;10370;53.102;18.034;2023-07-09T09:55:37;1.77;;;1.40;;
20421;SDS011;10370;53.102;18.034;2023-07-09T10:01:00;3.88;;;1.40;;
20421;SDS011;10370;53.102;18.034;2023-07-09T10:06:38;1.88;;;1.20;;
20421;SDS011;10370;53.102;18.034;2023-07-09T10:12:10;3.00;;;2.08;;
20421;SDS011;10370;53.102;18.034;2023-07-09T10:18:42;1.75;;;1.23;;
20421;SDS011;10370;53.102;18.034;2023-07-09T10:24:04;1.65;;;1.20;;
20421;SDS011;10370;53.102;18.034;2023-07-09T10:41:20;4.22;;;1.30;;
20421;SDS011;10370;53.102;18.034;2023-07-09T10:46:53;2.35;;;1.20;;
20421;SDS011;10370;53.102;18.034;2023-07-09T10:52:30;2.13;;;1.38;;
20421;SDS011;10370;53.102;18.034;2023-07-09T10:58:28;3.20;;;2.30;;
20421;SDS011;10370;53.102;18.034;2023-07-09T11:09:58;3.03;;;1.30;;
20421;SDS011;10370;53.102;18.034;2023-07-09T11:15:25;1.25;;;1.10;;
20421;SDS011;10370;53.102;18.034;2023-07-09T11:20:59;3.88;;;1.40;;
20421;SDS011;10370;53.102;18.034;2023-07-09T11:26:34;1.42;;;1.00;;
20421;SDS011;10370;53.102;18.034;2023-07-09T11:32:07;1.60;;;1.15;;
20421;SDS011;10370;53.102;18.034;2023-07-09T11:37:31;3.03;;;1.38;;
20421;SDS011;10370;53.102;18.034;2023-07-09T11:42:54;1.77;;;1.27;;
20421;SDS011;10370;53.102;18.034;2023-07-09T11:48:24;2.75;;;1.20;;
20421;SDS011;10370;53.102;18.034;2023-07-09T11:53:53;1.92;;;1.38;;
20421;SDS011;10370;53.102;18.034;2023-07-09T11:59:16;2.65;;;1.17;;
20421;SDS011;10370;53.102;18.034;2023-07-09T12:04:38;3.15;;;1.23;;
20421;SDS011;10370;53.102;18.034;2023-07-09T12:10:03;5.43;;;1.50;;
20421;SDS011;10370;53.102;18.034;2023-07-09T12:15:39;6.28;;;1.50;;
20421;SDS011;10370;53.102;18.034;2023-07-09T12:21:02;1.50;;;1.35;;
20421;SDS011;10370;53.102;18.034;2023-07-09T12:26:25;1.85;;;1.33;;
20421;SDS011;10370;53.102;18.034;2023-07-09T12:31:47;3.80;;;1.50;;
20421;SDS011;10370;53.102;18.034;2023-07-09T12:37:12;1.92;;;1.30;;
20421;SDS011;10370;53.102;18.034;2023-07-09T12:42:36;1.67;;;1.40;;
20421;SDS011;10370;53.102;18.034;2023-07-09T12:47:59;1.88;;;1.13;;
20421;SDS011;10370;53.102;18.034;2023-07-09T12:53:23;2.50;;;1.40;;
20421;SDS011;10370;53.102;18.034;2023-07-09T12:58:49;1.52;;;1.10;;
20421;SDS011;10370;53.102;18.034;2023-07-09T13:04:12;3.67;;;1.30;;
20421;SDS011;10370;53.102;18.034;2023-07-09T13:09:35;2.88;;;1.50;;
20421;SDS011;10370;53.102;18.034;2023-07-09T13:14:58;2.85;;;1.50;;
20421;SDS011;10370;53.102;18.034;2023-07-09T13:20:21;2.88;;;1.65;;
20421;SDS011;10370;53.102;18.034;2023-07-09T13:25:44;5.07;;;3.33;;
20421;SDS011;10370;53.102;18.034;2023-07-09T13:36:40;2.30;;;1.40;;
20421;SDS011;10370;53.102;18.034;2023-07-09T13:42:04;2.65;;;1.55;;
20421;SDS011;10370;53.102;18.034;2023-07-09T13:47:33;3.42;;;1.70;;
20421;SDS011;10370;53.102;18.034;2023-07-09T13:52:57;3.92;;;1.90;;
20421;SDS011;10370;53.102;18.034;2023-07-09T13:58:21;5.20;;;2.10;;
20421;SDS011;10370;53.102;18.034;2023-07-09T14:03:47;2.78;;;1.63;;
20421;SDS011;10370;53.102;18.034;2023-07-09T14:09:10;5.45;;;2.00;;
20421;SDS011;10370;53.102;18.034;2023-07-09T14:14:34;3.22;;;1.80;;
20421;SDS011;10370;53.102;18.034;2023-07-09T14:19:56;3.20;;;1.77;;
20421;SDS011;10370;53.102;18.034;2023-07-09T14:25:23;3.00;;;1.90;;
20421;SDS011;10370;53.102;18.034;2023-07-09T14:30:48;4.03;;;1.60;;
20421;SDS011;10370;53.102;18.034;2023-07-09T14:36:12;2.67;;;2.10;;
20421;SDS011;10370;53.102;18.034;2023-07-09T14:41:35;2.42;;;1.90;;
20421;SDS011;10370;53.102;18.034;2023-07-09T14:47:00;5.53;;;1.90;;
20421;SDS011;10370;53.102;18.034;2023-07-09T14:52:24;3.95;;;1.95;;
20421;SDS011;10370;53.102;18.034;2023-07-09T14:57:47;3.20;;;1.77;;
20421;SDS011;10370;53.102;18.034;2023-07-09T15:03:11;2.33;;;1.85;;
20421;SDS011;10370;53.102;18.034;2023-07-09T15:08:39;3.28;;;2.00;;
20421;SDS011;10370;53.102;18.034;2023-07-09T15:14:02;3.00;;;2.20;;
20421;SDS011;10370;53.102;18.034;2023-07-09T15:19:24;3.58;;;2.13;;
20421;SDS011;10370;53.102;18.034;2023-07-09T15:24:48;2.50;;;2.00;;
20421;SDS011;10370;53.102;18.034;2023-07-09T15:30:21;4.07;;;2.05;;
20421;SDS011;10370;53.102;18.034;2023-07-09T15:35:47;2.88;;;1.90;;
20421;SDS011;10370;53.102;18.034;2023-07-09T15:41:11;2.60;;;1.70;;
20421;SDS011;10370;53.102;18.034;2023-07-09T15:46:35;2.47;;;2.05;;
20421;SDS011;10370;53.102;18.034;2023-07-09T15:51:58;3.03;;;2.10;;
20421;SDS011;10370;53.102;18.034;2023-07-09T15:57:24;3.20;;;1.75;;
20421;SDS011;10370;53.102;18.034;2023-07-09T16:03:02;4.38;;;2.13;;
20421;SDS011;10370;53.102;18.034;2023-07-09T16:08:41;2.10;;;1.90;;
20421;SDS011;10370;53.102;18.034;2023-07-09T16:14:04;2.75;;;2.10;;
20421;SDS011;10370;53.102;18.034;2023-07-09T16:19:41;2.83;;;1.92;;
20421;SDS011;10370;53.102;18.034;2023-07-09T16:30:41;3.67;;;2.30;;
20421;SDS011;10370;53.102;18.034;2023-07-09T16:36:04;5.28;;;2.10;;
20421;SDS011;10370;53.102;18.034;2023-07-09T16:41:30;2.97;;;2.17;;
20421;SDS011;10370;53.102;18.034;2023-07-09T16:46:53;2.40;;;2.20;;
20421;SDS011;10370;53.102;18.034;2023-07-09T16:52:18;5.90;;;2.67;;
20421;SDS011;10370;53.102;18.034;2023-07-09T16:57:52;3.20;;;2.20;;
20421;SDS011;10370;53.102;18.034;2023-07-09T17:03:18;3.38;;;2.40;;
20421;SDS011;10370;53.102;18.034;2023-07-09T17:08:40;7.18;;;3.00;;
20421;SDS011;10370;53.102;18.034;2023-07-09T17:14:07;3.17;;;2.13;;
20421;SDS011;10370;53.102;18.034;2023-07-09T17:19:39;6.15;;;2.38;;
20421;SDS011;10370;53.102;18.034;2023-07-09T17:25:21;12.20;;;3.70;;
20421;SDS011;10370;53.102;18.034;2023-07-09T17:30:56;4.95;;;2.40;;
20421;SDS011;10370;53.102;18.034;2023-07-09T17:36:21;4.30;;;2.65;;
20421;SDS011;10370;53.102;18.034;2023-07-09T17:41:47;3.58;;;2.70;;
20421;SDS011;10370;53.102;18.034;2023-07-09T17:47:16;5.60;;;3.45;;
20421;SDS011;10370;53.102;18.034;2023-07-09T17:52:41;3.30;;;2.38;;
20421;SDS011;10370;53.102;18.034;2023-07-09T17:58:07;4.47;;;2.45;;
20421;SDS011;10370;53.102;18.034;2023-07-09T18:03:34;3.85;;;2.50;;
20421;SDS011;10370;53.102;18.034;2023-07-09T18:08:58;6.07;;;2.35;;
20421;SDS011;10370;53.102;18.034;2023-07-09T18:14:27;9.45;;;2.60;;
20421;SDS011;10370;53.102;18.034;2023-07-09T18:19:57;3.75;;;2.33;;
20421;SDS011;10370;53.102;18.034;2023-07-09T18:25:27;4.03;;;2.38;;
20421;SDS011;10370;53.102;18.034;2023-07-09T18:30:52;3.35;;;2.33;;
20421;SDS011;10370;53.102;18.034;2023-07-09T18:36:32;2.72;;;2.13;;
20421;SDS011;10370;53.102;18.034;2023-07-09T18:41:54;7.18;;;2.90;;
20421;SDS011;10370;53.102;18.034;2023-07-09T18:47:18;12.88;;;2.95;;
20421;SDS011;10370;53.102;18.034;2023-07-09T18:52:41;5.47;;;2.25;;
20421;SDS011;10370;53.102;18.034;2023-07-09T18:58:13;6.70;;;3.38;;
20421;SDS011;10370;53.102;18.034;2023-07-09T19:03:40;7.80;;;2.70;;
20421;SDS011;10370;53.102;18.034;2023-07-09T19:09:07;11.15;;;3.08;;
20421;SDS011;10370;53.102;18.034;2023-07-09T19:14:42;8.07;;;3.03;;
20421;SDS011;10370;53.102;18.034;2023-07-09T19:20:24;10.57;;;3.50;;
20421;SDS011;10370;53.102;18.034;2023-07-09T19:25:47;16.73;;;4.95;;
20421;SDS011;10370;53.102;18.034;2023-07-09T19:31:11;11.32;;;3.95;;
20421;SDS011;10370;53.102;18.034;2023-07-09T19:36:34;13.77;;;4.57;;
20421;SDS011;10370;53.102;18.034;2023-07-09T19:42:01;36.83;;;5.85;;
20421;SDS011;10370;53.102;18.034;2023-07-09T19:47:34;36.05;;;5.90;;
20421;SDS011;10370;53.102;18.034;2023-07-09T19:52:58;25.85;;;5.72;;
20421;SDS011;10370;53.102;18.034;2023-07-09T19:58:22;33.45;;;6.55;;
20421;SDS011;10370;53.102;18.034;2023-07-09T20:03:45;31.35;;;6.07;;
20421;SDS011;10370;53.102;18.034;2023-07-09T20:09:12;19.92;;;6.10;;
20421;SDS011;10370;53.102;18.034;2023-07-09T20:14:37;26.38;;;5.90;;
20421;SDS011;10370;53.102;18.034;2023-07-09T20:20:01;40.47;;;5.50;;
20421;SDS011;10370;53.102;18.034;2023-07-09T20:25:24;26.95;;;5.07;;
20421;SDS011;10370;53.102;18.034;2023-07-09T20:30:47;36.90;;;5.93;;
20421;SDS011;10370;53.102;18.034;2023-07-09T20:36:12;39.78;;;6.05;;
20421;SDS011;10370;53.102;18.034;2023-07-09T20:41:39;14.13;;;4.90;;
20421;SDS011;10370;53.102;18.034;2023-07-09T20:47:12;21.50;;;5.70;;
20421;SDS011;10370;53.102;18.034;2023-07-09T20:52:40;21.13;;;5.18;;
20421;SDS011;10370;53.102;18.034;2023-07-09T20:58:16;16.35;;;4.78;;
20421;SDS011;10370;53.102;18.034;2023-07-09T21:03:40;19.30;;;5.30;;
20421;SDS011;10370;53.102;18.034;2023-07-09T21:09:37;14.48;;;5.55;;
20421;SDS011;10370;53.102;18.034;2023-07-09T21:14:53;23.77;;;6.55;;
20421;SDS011;10370;53.102;18.034;2023-07-09T21:20:17;30.08;;;5.93;;
20421;SDS011;10370;53.102;18.034;2023-07-09T21:25:41;21.17;;;6.00;;
20421;SDS011;10370;53.102;18.034;2023-07-09T21:31:04;21.35;;;6.30;;
20421;SDS011;10370;53.102;18.034;2023-07-09T21:36:32;16.95;;;5.38;;
20421;SDS011;10370;53.102;18.034;2023-07-09T21:41:56;9.27;;;5.15;;
20421;SDS011;10370;53.102;18.034;2023-07-09T21:47:19;5.72;;;3.90;;
20421;SDS011;10370;53.102;18.034;2023-07-09T21:52:45;5.78;;;3.90;;
20421;SDS011;10370;53.102;18.034;2023-07-09T21:58:11;7.65;;;4.28;;
20421;SDS011;10370;53.102;18.034;2023-07-09T22:03:34;6.90;;;3.58;;
20421;SDS011;10370;53.102;18.034;2023-07-09T22:08:58;5.45;;;3.70;;
20421;SDS011;10370;53.102;18.034;2023-07-09T22:14:22;7.82;;;4.03;;
20421;SDS011;10370;53.102;18.034;2023-07-09T22:19:46;6.85;;;3.95;;
20421;SDS011;10370;53.102;18.034;2023-07-09T22:25:13;7.25;;;4.80;;
20421;SDS011;10370;53.102;18.034;2023-07-09T22:30:37;15.15;;;5.63;;
20421;SDS011;10370;53.102;18.034;2023-07-09T22:36:00;12.35;;;5.47;;
20421;SDS011;10370;53.102;18.034;2023-07-09T22:41:23;8.63;;;5.05;;
20421;SDS011;10370;53.102;18.034;2023-07-09T22:46:45;10.57;;;5.72;;
20421;SDS011;10370;53.102;18.034;2023-07-09T22:52:11;7.13;;;4.95;;
20421;SDS011;10370;53.102;18.034;2023-07-09T22:57:40;7.22;;;4.68;;
20421;SDS011;10370;53.102;18.034;2023-07-09T23:03:18;12.20;;;4.93;;
20421;SDS011;10370;53.102;18.034;2023-07-09T23:08:52;13.63;;;7.80;;
20421;SDS011;10370;53.102;18.034;2023-07-09T23:14:21;24.27;;;13.38;;
20421;SDS011;10370;53.102;18.034;2023-07-09T23:19:48;15.65;;;8.02;;
20421;SDS011;10370;53.102;18.034;2023-07-09T23:25:12;12.95;;;7.55;;
20421;SDS011;10370;53.102;18.034;2023-07-09T23:30:35;14.57;;;6.68;;
20421;SDS011;10370;53.102;18.034;2023-07-09T23:35:58;14.27;;;7.32;;
20421;SDS011;10370;53.102;18.034;2023-07-09T23:41:26;15.60;;;8.15;;
20421;SDS011;10370;53.102;18.034;2023-07-09T23:46:51;9.88;;;5.47;;
20421;SDS011;10370;53.102;18.034;2023-07-09T23:52:14;9.38;;;5.55;;
20421;SDS011;10370;53.102;18.034;2023-07-09T23:57:37;8.98;;;4.82;;
